createdAt,value
2019-03-17T00:01:00.388Z,1.50
2019-03-17T00:03:29.945Z,1.60
2019-03-17T00:05:59.951Z,1.60
2019-03-17T00:08:29.564Z,1.80
2019-03-17T00:10:59.345Z,1.77
2019-03-17T00:13:28.933Z,1.57
2019-03-17T00:15:58.504Z,1.57
2019-03-17T00:18:28.369Z,1.33
2019-03-17T00:20:58.189Z,1.23
2019-03-17T00:23:28.032Z,1.50
2019-03-17T00:25:57.899Z,1.20
2019-03-17T00:28:27.415Z,1.07
2019-03-17T00:30:57.008Z,1.47
2019-03-17T00:33:26.796Z,1.20
2019-03-17T00:35:57.057Z,1.00
2019-03-17T00:38:27.143Z,1.03
2019-03-17T00:40:59.246Z,1.33
2019-03-17T00:43:29.285Z,1.27
2019-03-17T00:45:58.840Z,1.17
2019-03-17T00:48:28.667Z,1.43
2019-03-17T00:50:58.197Z,1.33
2019-03-17T00:53:27.982Z,1.40
2019-03-17T00:55:57.550Z,1.57
2019-03-17T00:58:27.397Z,1.57
2019-03-17T01:00:57.215Z,2.00
2019-03-17T01:03:26.729Z,2.10
2019-03-17T01:05:56.300Z,2.33
2019-03-17T01:08:26.745Z,2.40
2019-03-17T01:10:56.257Z,2.03
2019-03-17T01:13:26.189Z,4.07
2019-03-17T01:15:57.005Z,4.80
2019-03-17T01:18:26.660Z,5.67
2019-03-17T01:20:56.600Z,5.40
2019-03-17T01:23:26.125Z,3.47
2019-03-17T01:25:56.005Z,2.57
2019-03-17T01:28:25.558Z,1.80
2019-03-17T01:30:55.869Z,1.80
2019-03-17T01:33:25.397Z,1.47
2019-03-17T01:35:55.000Z,0.90
2019-03-17T01:38:24.545Z,1.60
2019-03-17T01:40:54.082Z,2.03
2019-03-17T01:43:23.626Z,1.90
2019-03-17T01:45:53.609Z,1.77
2019-03-17T01:48:23.417Z,1.50
2019-03-17T01:50:52.968Z,1.90
2019-03-17T01:53:25.187Z,1.50
2019-03-17T01:55:54.725Z,1.80
2019-03-17T01:58:24.240Z,1.30
2019-03-17T02:00:53.798Z,1.90
2019-03-17T02:03:23.610Z,2.27
2019-03-17T02:05:53.729Z,1.93
2019-03-17T02:08:23.261Z,2.33
2019-03-17T02:10:53.600Z,2.67
2019-03-17T02:13:23.134Z,1.70
2019-03-17T02:15:52.661Z,1.10
2019-03-17T02:18:22.232Z,1.00
2019-03-17T02:20:52.184Z,1.00
2019-03-17T02:23:21.793Z,1.07
2019-03-17T02:25:51.608Z,1.20
2019-03-17T02:28:21.181Z,1.00
2019-03-17T02:30:50.971Z,1.40
2019-03-17T02:33:20.510Z,1.50
2019-03-17T02:35:50.469Z,1.30
2019-03-17T02:38:20.353Z,0.90
2019-03-17T02:40:50.163Z,1.10
2019-03-17T02:43:19.688Z,0.80
2019-03-17T02:45:49.234Z,0.90
2019-03-17T02:48:19.087Z,1.00
2019-03-17T02:50:49.001Z,1.07
2019-03-17T02:53:18.531Z,0.90
2019-03-17T02:55:48.117Z,0.90
2019-03-17T02:58:18.333Z,1.10
2019-03-17T03:00:48.525Z,1.40
2019-03-17T03:03:18.076Z,1.10
2019-03-17T03:05:54.694Z,0.77
2019-03-17T03:08:18.822Z,1.00
2019-03-17T03:10:48.425Z,0.90
2019-03-17T03:13:18.632Z,0.97
2019-03-17T03:15:55.006Z,1.10
2019-03-17T03:18:24.586Z,0.83
2019-03-17T03:20:54.140Z,1.00
2019-03-17T03:23:23.694Z,0.90
2019-03-17T03:25:53.236Z,0.83
2019-03-17T03:28:23.438Z,1.27
2019-03-17T03:30:52.996Z,1.63
2019-03-17T03:33:22.973Z,1.43
2019-03-17T03:35:52.533Z,1.60
2019-03-17T03:38:22.693Z,1.77
2019-03-17T03:40:52.317Z,1.80
2019-03-17T03:43:21.929Z,1.77
2019-03-17T03:45:51.483Z,1.50
2019-03-17T03:48:21.016Z,1.23
2019-03-17T03:50:50.581Z,1.37
2019-03-17T03:53:20.121Z,1.50
2019-03-17T03:55:49.724Z,1.20
2019-03-17T03:58:19.314Z,1.60
2019-03-17T04:00:49.133Z,1.30
2019-03-17T04:03:18.985Z,1.67
2019-03-17T04:05:48.855Z,1.13
2019-03-17T04:08:18.473Z,1.00
2019-03-17T04:10:48.011Z,1.20
2019-03-17T04:13:17.529Z,0.90
2019-03-17T04:15:47.761Z,1.00
2019-03-17T04:18:17.296Z,0.83
2019-03-17T04:20:47.184Z,1.00
2019-03-17T04:23:17.073Z,1.00
2019-03-17T04:25:46.742Z,0.87
2019-03-17T04:28:16.285Z,0.93
2019-03-17T04:30:46.144Z,0.93
2019-03-17T04:33:15.949Z,1.00
2019-03-17T04:35:45.790Z,1.10
2019-03-17T04:38:15.333Z,0.90
2019-03-17T04:40:45.116Z,0.90
2019-03-17T04:43:22.852Z,1.30
2019-03-17T04:45:52.693Z,1.10
2019-03-17T04:48:22.824Z,1.30
2019-03-17T04:50:52.499Z,1.27
2019-03-17T04:53:22.328Z,1.13
2019-03-17T04:55:51.990Z,1.00
2019-03-17T04:58:21.572Z,1.20
2019-03-17T05:00:51.123Z,1.20
2019-03-17T05:03:20.629Z,1.10
2019-03-17T05:05:50.465Z,0.90
2019-03-17T05:08:20.044Z,1.10
2019-03-17T05:10:49.886Z,0.83
2019-03-17T05:13:19.910Z,1.50
2019-03-17T05:15:49.449Z,1.43
2019-03-17T05:18:19.654Z,1.53
2019-03-17T05:20:49.173Z,1.57
2019-03-17T05:23:18.692Z,0.97
2019-03-17T05:25:48.225Z,0.93
2019-03-17T05:28:18.161Z,1.10
2019-03-17T05:30:47.706Z,1.20
2019-03-17T05:33:17.877Z,0.60
2019-03-17T05:35:47.446Z,0.80
2019-03-17T05:38:17.350Z,1.37
2019-03-17T05:40:48.235Z,0.90
2019-03-17T05:43:17.758Z,1.23
2019-03-17T05:45:47.669Z,1.40
2019-03-17T05:48:17.276Z,1.30
2019-03-17T05:50:47.133Z,1.27
2019-03-17T05:53:17.076Z,1.23
2019-03-17T05:55:46.625Z,1.23
2019-03-17T05:58:16.164Z,1.20
2019-03-17T06:00:45.713Z,1.37
2019-03-17T06:03:15.533Z,1.00
2019-03-17T06:05:45.140Z,1.27
2019-03-17T06:08:15.107Z,1.40
2019-03-17T06:10:44.674Z,1.03
2019-03-17T06:13:14.209Z,1.17
2019-03-17T06:15:43.759Z,1.30
2019-03-17T06:18:13.769Z,1.47
2019-03-17T06:20:43.333Z,1.57
2019-03-17T06:23:12.869Z,1.63
2019-03-17T06:25:42.674Z,1.30
2019-03-17T06:28:12.584Z,1.40
2019-03-17T06:30:42.129Z,1.63
2019-03-17T06:33:12.146Z,1.27
2019-03-17T06:35:42.138Z,1.40
2019-03-17T06:38:11.910Z,1.60
2019-03-17T06:40:41.436Z,1.77
2019-03-17T06:43:10.996Z,1.20
2019-03-17T06:45:40.534Z,1.60
2019-03-17T06:48:10.072Z,1.67
2019-03-17T06:50:39.865Z,1.30
2019-03-17T06:53:09.396Z,1.90
2019-03-17T06:55:38.930Z,1.60
2019-03-17T06:58:08.737Z,1.47
2019-03-17T07:00:38.596Z,1.83
2019-03-17T07:03:08.141Z,1.80
2019-03-17T07:05:37.696Z,1.60
2019-03-17T07:08:07.224Z,1.60
2019-03-17T07:10:36.816Z,1.37
2019-03-17T07:13:06.631Z,1.47
2019-03-17T07:15:36.367Z,1.67
2019-03-17T07:18:06.382Z,1.70
2019-03-17T07:20:35.916Z,1.53
2019-03-17T07:23:06.030Z,1.43
2019-03-17T07:25:35.536Z,2.17
2019-03-17T07:28:05.167Z,1.53
2019-03-17T07:30:35.049Z,2.20
2019-03-17T07:33:04.660Z,1.70
2019-03-17T07:35:34.204Z,1.90
2019-03-17T07:38:04.134Z,1.70
2019-03-17T07:40:34.350Z,2.50
2019-03-17T07:43:03.888Z,1.97
2019-03-17T07:45:33.428Z,2.00
2019-03-17T07:48:02.980Z,2.17
2019-03-17T07:50:32.780Z,2.10
2019-03-17T07:53:02.328Z,2.00
2019-03-17T07:55:31.901Z,1.77
2019-03-17T07:58:01.430Z,2.00
2019-03-17T08:00:48.280Z,2.03
2019-03-17T08:03:17.825Z,2.17
2019-03-17T08:05:47.354Z,2.23
2019-03-17T08:08:16.992Z,2.00
2019-03-17T08:10:46.845Z,2.27
2019-03-17T08:13:16.804Z,2.50
2019-03-17T08:15:46.342Z,2.03
2019-03-17T08:18:15.914Z,2.00
2019-03-17T08:20:45.636Z,1.83
2019-03-17T08:23:15.240Z,1.93
2019-03-17T08:25:45.077Z,2.20
2019-03-17T08:28:14.605Z,2.40
2019-03-17T08:30:53.017Z,2.40
2019-03-17T08:33:15.384Z,2.60
2019-03-17T08:35:45.004Z,2.47
2019-03-17T08:38:21.883Z,2.30
2019-03-17T08:40:46.153Z,2.50
2019-03-17T08:43:16.085Z,2.37
2019-03-17T08:45:45.608Z,2.30
2019-03-17T08:48:15.177Z,2.90
2019-03-17T08:50:45.220Z,3.70
2019-03-17T08:53:14.744Z,2.50
2019-03-17T08:55:44.324Z,2.40
2019-03-17T08:58:14.256Z,3.03
2019-03-17T09:00:43.781Z,2.40
2019-03-17T09:03:14.185Z,3.20
2019-03-17T09:05:43.758Z,2.67
2019-03-17T09:08:13.391Z,3.27
2019-03-17T09:10:43.076Z,2.80
2019-03-17T09:13:13.328Z,3.80
2019-03-17T09:15:42.876Z,3.73
2019-03-17T09:18:12.427Z,3.73
2019-03-17T09:20:42.353Z,3.10
2019-03-17T09:23:12.252Z,2.63
2019-03-17T09:25:42.280Z,3.50
2019-03-17T09:28:11.816Z,3.93
2019-03-17T09:30:42.358Z,2.67
2019-03-17T09:33:12.180Z,3.43
2019-03-17T09:35:41.730Z,2.87
2019-03-17T09:38:11.268Z,3.37
2019-03-17T09:40:41.143Z,2.87
2019-03-17T09:43:10.961Z,3.03
2019-03-17T09:45:40.501Z,3.10
2019-03-17T09:48:10.377Z,2.77
2019-03-17T09:50:39.960Z,2.40
2019-03-17T09:53:09.491Z,2.27
2019-03-17T09:55:39.301Z,2.20
2019-03-17T09:58:08.828Z,2.70
2019-03-17T10:00:38.373Z,2.30
2019-03-17T10:03:07.943Z,2.40
2019-03-17T10:05:43.488Z,1.97
2019-03-17T10:08:13.113Z,2.40
2019-03-17T10:10:42.636Z,2.63
2019-03-17T10:13:12.681Z,2.00
2019-03-17T10:15:42.502Z,2.60
2019-03-17T10:18:12.419Z,2.73
2019-03-17T10:20:41.957Z,2.80
2019-03-17T10:23:11.481Z,2.23
2019-03-17T10:25:41.037Z,2.23
2019-03-17T10:28:10.877Z,1.90
2019-03-17T10:30:40.400Z,2.97
2019-03-17T10:33:10.257Z,2.13
2019-03-17T10:35:40.064Z,2.23
2019-03-17T10:38:09.596Z,2.20
2019-03-17T10:40:39.205Z,3.43
2019-03-17T10:43:08.797Z,2.70
2019-03-17T10:45:38.592Z,2.43
2019-03-17T10:48:09.121Z,1.73
2019-03-17T10:50:49.564Z,2.50
2019-03-17T10:53:14.822Z,2.80
2019-03-17T10:55:45.520Z,2.07
2019-03-17T10:58:17.485Z,2.67
2019-03-17T11:00:47.631Z,2.73
2019-03-17T11:03:19.060Z,2.27
2019-03-17T11:05:49.123Z,2.30
2019-03-17T11:08:19.047Z,0.50
2019-03-17T11:10:48.913Z,0.30
2019-03-17T11:13:19.004Z,0.37
2019-03-17T11:15:49.756Z,0.30
2019-03-17T11:18:19.542Z,0.20
2019-03-17T11:20:55.485Z,0.20
2019-03-17T11:23:25.289Z,0.13
2019-03-17T11:25:55.157Z,0.30
2019-03-17T11:28:25.039Z,0.20
2019-03-17T11:30:59.344Z,0.23
2019-03-17T11:33:28.892Z,0.23
2019-03-17T11:35:58.768Z,0.20
2019-03-17T11:38:28.368Z,0.30
2019-03-17T11:40:57.921Z,0.20
2019-03-17T11:43:27.693Z,0.30
2019-03-17T11:45:57.211Z,0.40
2019-03-17T11:48:27.093Z,0.30
2019-03-17T11:50:56.926Z,0.27
2019-03-17T11:53:26.592Z,0.30
2019-03-17T11:55:59.509Z,0.23
2019-03-17T11:58:29.316Z,0.20
2019-03-17T12:00:59.232Z,0.30
2019-03-17T12:03:29.876Z,0.23
2019-03-17T12:06:00.303Z,0.30
2019-03-17T12:08:30.195Z,0.20
2019-03-17T12:11:00.021Z,0.23
2019-03-17T12:13:35.696Z,0.20
2019-03-17T12:16:05.597Z,0.50
2019-03-17T12:18:35.136Z,0.40
2019-03-17T12:21:05.400Z,0.30
2019-03-17T12:23:34.944Z,0.30
2019-03-17T12:26:12.089Z,0.36
2019-03-17T12:28:41.905Z,0.30
2019-03-17T12:31:11.776Z,0.40
2019-03-17T12:33:41.315Z,0.23
2019-03-17T12:36:11.376Z,0.60
2019-03-17T12:38:41.384Z,0.30
2019-03-17T12:41:11.012Z,0.43
2019-03-17T12:43:40.890Z,0.20
2019-03-17T12:46:17.354Z,0.30
2019-03-17T12:48:47.398Z,0.37
2019-03-17T12:51:17.214Z,0.23
2019-03-17T12:53:53.686Z,0.40
2019-03-17T12:56:23.791Z,0.40
2019-03-17T12:58:53.713Z,0.20
2019-03-17T13:01:23.736Z,0.20
2019-03-17T13:03:53.280Z,0.40
2019-03-17T13:06:25.494Z,0.40
2019-03-17T13:08:56.304Z,0.20
2019-03-17T13:11:26.210Z,0.30
2019-03-17T13:13:56.415Z,0.30
2019-03-17T13:16:26.881Z,0.30
2019-03-17T13:18:56.736Z,0.30
2019-03-17T13:21:27.192Z,0.20
2019-03-17T13:23:57.384Z,0.30
2019-03-17T13:26:27.220Z,0.23
2019-03-17T13:28:57.576Z,0.10
2019-03-17T13:31:29.717Z,0.30
2019-03-17T13:33:59.277Z,0.40
2019-03-17T13:36:29.492Z,0.30
2019-03-17T13:38:59.599Z,0.23
2019-03-17T13:41:29.269Z,0.50
2019-03-17T13:44:13.504Z,0.20
2019-03-17T13:46:43.048Z,0.20
2019-03-17T13:49:12.921Z,0.40
2019-03-17T13:51:43.050Z,0.67
2019-03-17T13:54:13.074Z,4.17
2019-03-17T13:56:42.873Z,0.80
2019-03-17T13:59:12.689Z,0.70
2019-03-17T14:01:42.493Z,0.37
2019-03-17T14:04:12.405Z,0.40
2019-03-17T14:06:42.249Z,0.40
2019-03-17T14:09:11.841Z,1.10
2019-03-17T14:11:41.941Z,1.07
2019-03-17T14:14:11.757Z,0.70
2019-03-17T14:16:45.457Z,0.41
2019-03-17T14:19:15.674Z,0.40
2019-03-17T14:21:46.105Z,0.47
2019-03-17T14:24:16.221Z,0.30
2019-03-17T14:26:46.330Z,0.40
2019-03-17T14:29:15.861Z,0.27
2019-03-17T14:31:45.805Z,0.50
2019-03-17T14:34:15.665Z,0.30
2019-03-17T14:36:45.206Z,0.30
2019-03-17T14:39:15.305Z,0.30
2019-03-17T14:41:45.305Z,0.40
2019-03-17T14:44:15.212Z,0.30
2019-03-17T14:46:44.761Z,0.30
2019-03-17T14:49:14.777Z,0.20
2019-03-17T14:51:44.454Z,0.30
2019-03-17T14:54:14.860Z,0.30
2019-03-17T14:56:44.387Z,0.40
2019-03-17T14:59:14.021Z,0.50
2019-03-17T15:01:43.825Z,1.10
2019-03-17T15:04:13.344Z,0.80
2019-03-17T15:06:42.886Z,0.53
2019-03-17T15:09:12.410Z,0.70
2019-03-17T15:11:42.529Z,0.57
2019-03-17T15:14:13.180Z,2.37
2019-03-17T15:16:42.722Z,1.90
2019-03-17T15:19:12.482Z,0.83
2019-03-17T15:21:42.544Z,0.80
2019-03-17T15:24:12.088Z,0.77
2019-03-17T15:26:41.649Z,0.60
2019-03-17T15:29:11.253Z,0.53
2019-03-17T15:31:41.314Z,0.50
2019-03-17T15:34:10.852Z,0.80
2019-03-17T15:36:40.381Z,0.47
2019-03-17T15:39:10.245Z,1.43
2019-03-17T15:41:39.784Z,3.60
2019-03-17T15:44:09.416Z,5.87
2019-03-17T15:46:38.941Z,2.10
2019-03-17T15:49:08.552Z,1.00
2019-03-17T15:51:38.157Z,1.60
2019-03-17T15:54:14.742Z,0.70
2019-03-17T15:56:44.292Z,0.57
2019-03-17T15:59:14.064Z,0.60
2019-03-17T16:01:43.941Z,0.30
2019-03-17T16:04:13.884Z,0.30
2019-03-17T16:06:45.529Z,0.53
2019-03-17T16:09:15.064Z,0.60
2019-03-17T16:11:45.028Z,0.60
2019-03-17T16:14:15.191Z,0.50
2019-03-17T16:16:45.699Z,0.40
2019-03-17T16:19:15.355Z,0.17
2019-03-17T16:21:45.058Z,0.40
2019-03-17T16:24:14.933Z,0.50
2019-03-17T16:26:45.009Z,1.10
2019-03-17T16:29:14.521Z,1.10
2019-03-17T16:31:50.428Z,0.70
2019-03-17T16:34:20.729Z,0.50
2019-03-17T16:36:50.253Z,0.43
2019-03-17T16:39:20.172Z,0.60
2019-03-17T16:41:49.688Z,0.53
2019-03-17T16:44:19.461Z,0.60
2019-03-17T16:46:49.589Z,0.40
2019-03-17T16:49:19.348Z,0.50
2019-03-17T16:51:49.170Z,0.67
2019-03-17T16:54:19.100Z,0.43
2019-03-17T16:56:48.630Z,0.60
2019-03-17T16:59:18.683Z,0.40
2019-03-17T17:01:48.301Z,1.13
2019-03-17T17:04:17.921Z,0.80
2019-03-17T17:06:47.452Z,1.60
2019-03-17T17:09:17.290Z,0.73
2019-03-17T17:11:56.705Z,0.70
2019-03-17T17:14:18.564Z,0.57
2019-03-17T17:16:48.093Z,0.60
2019-03-17T17:19:17.629Z,0.77
2019-03-17T17:21:47.154Z,0.70
2019-03-17T17:24:16.984Z,0.60
2019-03-17T17:26:46.866Z,1.10
2019-03-17T17:29:16.681Z,0.70
2019-03-17T17:31:47.116Z,1.00
2019-03-17T17:34:17.318Z,0.90
2019-03-17T17:36:47.165Z,1.00
2019-03-17T17:39:16.728Z,0.93
2019-03-17T17:41:46.857Z,1.00
2019-03-17T17:44:16.776Z,0.83
2019-03-17T17:46:46.557Z,0.90
2019-03-17T17:49:16.393Z,0.80
2019-03-17T17:51:46.178Z,0.90
2019-03-17T17:54:16.016Z,1.00
2019-03-17T17:56:45.868Z,0.90
2019-03-17T17:59:15.945Z,0.87
2019-03-17T18:01:45.470Z,2.90
2019-03-17T18:04:15.256Z,3.30
2019-03-17T18:06:45.173Z,0.60
2019-03-17T18:09:15.308Z,1.13
2019-03-17T18:11:47.057Z,3.00
2019-03-17T18:14:16.605Z,2.30
2019-03-17T18:16:46.421Z,2.10
2019-03-17T18:19:16.319Z,1.40
2019-03-17T18:21:45.919Z,2.23
2019-03-17T18:24:15.436Z,2.23
2019-03-17T18:26:45.304Z,1.37
2019-03-17T18:29:14.852Z,0.97
2019-03-17T18:31:45.037Z,1.30
2019-03-17T18:34:14.578Z,1.20
2019-03-17T18:36:45.472Z,1.37
2019-03-17T18:39:15.350Z,1.63
2019-03-17T18:41:44.960Z,2.57
2019-03-17T18:44:14.527Z,1.37
2019-03-17T18:46:46.057Z,1.00
2019-03-17T18:49:15.948Z,1.10
2019-03-17T18:51:47.564Z,1.00
2019-03-17T18:54:17.384Z,1.00
2019-03-17T18:56:47.032Z,0.87
2019-03-17T18:59:17.971Z,1.10
2019-03-17T19:01:47.838Z,0.80
2019-03-17T19:04:17.840Z,0.90
2019-03-17T19:06:47.600Z,1.07
2019-03-17T19:09:17.125Z,1.03
2019-03-17T19:11:46.676Z,1.00
2019-03-17T19:14:21.336Z,0.84
2019-03-17T19:16:50.858Z,1.33
2019-03-17T19:19:26.277Z,1.13
2019-03-17T19:21:56.297Z,0.90
2019-03-17T19:24:25.893Z,1.13
2019-03-17T19:26:55.464Z,2.10
2019-03-17T19:29:25.102Z,1.10
2019-03-17T19:31:54.626Z,0.80
2019-03-17T19:34:24.173Z,0.90
2019-03-17T19:36:53.713Z,0.60
2019-03-17T19:39:23.282Z,0.67
2019-03-17T19:41:59.695Z,0.90
2019-03-17T19:44:30.022Z,1.70
2019-03-17T19:46:59.556Z,0.57
2019-03-17T19:49:29.089Z,0.50
2019-03-17T19:51:58.948Z,0.30
2019-03-17T19:54:28.757Z,0.30
2019-03-17T19:56:58.276Z,0.40
2019-03-17T19:59:27.912Z,0.40
2019-03-17T20:01:58.309Z,0.50
2019-03-17T20:04:31.518Z,0.40
2019-03-17T20:06:59.449Z,0.40
2019-03-17T20:09:28.978Z,0.50
2019-03-17T20:11:58.765Z,0.60
2019-03-17T20:14:28.647Z,0.57
2019-03-17T20:16:58.177Z,0.50
2019-03-17T20:19:28.301Z,0.63
2019-03-17T20:21:57.852Z,0.70
2019-03-17T20:24:27.652Z,0.50
2019-03-17T20:26:57.212Z,0.57
2019-03-17T20:29:28.800Z,0.70
2019-03-17T20:31:57.972Z,0.50
2019-03-17T20:34:28.286Z,0.77
2019-03-17T20:36:58.410Z,0.97
2019-03-17T20:39:28.177Z,0.50
2019-03-17T20:41:58.276Z,0.30
2019-03-17T20:44:27.928Z,0.50
2019-03-17T20:46:57.865Z,0.40
2019-03-17T20:49:28.052Z,0.20
2019-03-17T20:51:57.889Z,0.47
2019-03-17T20:54:27.710Z,0.40
2019-03-17T20:56:59.603Z,0.40
2019-03-17T20:59:28.824Z,0.30
2019-03-17T21:01:58.378Z,0.40
2019-03-17T21:04:28.002Z,0.30
2019-03-17T21:06:58.102Z,0.50
2019-03-17T21:09:35.900Z,0.36
2019-03-17T21:12:05.420Z,0.37
2019-03-17T21:14:34.943Z,0.60
2019-03-17T21:17:04.484Z,0.53
2019-03-17T21:19:34.353Z,0.40
2019-03-17T21:22:04.193Z,0.30
2019-03-17T21:24:34.238Z,0.40
2019-03-17T21:27:03.915Z,0.30
2019-03-17T21:29:33.963Z,0.40
2019-03-17T21:32:03.568Z,0.20
2019-03-17T21:34:33.493Z,0.40
2019-03-17T21:37:03.294Z,0.30
2019-03-17T21:39:32.848Z,0.40
2019-03-17T21:42:02.741Z,0.40
2019-03-17T21:44:32.582Z,0.20
2019-03-17T21:47:02.361Z,0.40
2019-03-17T21:49:32.248Z,0.30
2019-03-17T21:52:01.778Z,0.30
2019-03-17T21:54:31.364Z,0.20
2019-03-17T21:57:01.586Z,0.40
2019-03-17T21:59:33.016Z,0.40
2019-03-17T22:02:12.780Z,0.30
2019-03-17T22:04:37.045Z,0.30
2019-03-17T22:07:06.922Z,0.30
2019-03-17T22:09:36.907Z,0.30
2019-03-17T22:12:06.457Z,0.20
2019-03-17T22:14:36.027Z,0.40
2019-03-17T22:17:05.797Z,0.23
2019-03-17T22:19:35.341Z,0.20
2019-03-17T22:22:04.868Z,0.30
2019-03-17T22:24:35.041Z,0.40
2019-03-17T22:27:04.637Z,0.40
2019-03-17T22:29:34.597Z,0.20
2019-03-17T22:32:04.209Z,0.40
2019-03-17T22:34:33.744Z,0.30
2019-03-17T22:37:03.269Z,0.40
2019-03-17T22:39:33.485Z,0.30
2019-03-17T22:42:10.674Z,0.60
2019-03-17T22:44:40.321Z,0.20
2019-03-17T22:47:10.404Z,0.43
2019-03-17T22:49:40.304Z,0.50
2019-03-17T22:52:09.933Z,0.50
2019-03-17T22:54:39.825Z,0.20
2019-03-17T22:57:09.348Z,0.20
2019-03-17T22:59:39.141Z,0.43
2019-03-17T23:02:09.370Z,0.30
2019-03-17T23:04:39.122Z,0.20
2019-03-17T23:07:08.669Z,0.33
2019-03-17T23:09:38.493Z,0.20
2019-03-17T23:12:08.034Z,0.20
2019-03-17T23:14:37.587Z,0.23
2019-03-17T23:17:07.464Z,0.40
2019-03-17T23:19:37.001Z,0.47
2019-03-17T23:22:12.800Z,0.50
2019-03-17T23:24:42.981Z,0.60
2019-03-17T23:27:12.521Z,0.80
2019-03-17T23:29:42.354Z,0.73
2019-03-17T23:32:12.917Z,0.70
2019-03-17T23:34:42.780Z,0.50
2019-03-17T23:37:12.453Z,0.70
2019-03-17T23:39:41.994Z,0.80
2019-03-17T23:42:11.550Z,0.70
2019-03-17T23:44:48.732Z,0.70
2019-03-17T23:47:12.609Z,0.57
2019-03-17T23:49:42.135Z,0.43
2019-03-17T23:52:12.033Z,0.30
2019-03-17T23:54:41.845Z,0.50
2019-03-17T23:57:11.688Z,0.20
2019-03-17T23:59:41.225Z,0.40
